createdAt,value
2023-04-10T00:01:03.776Z,4.17
2023-04-10T00:03:33.976Z,4.15
2023-04-10T00:06:02.890Z,3.97
2023-04-10T00:08:31.892Z,4.07
2023-04-10T00:10:58.434Z,3.98
2023-04-10T00:13:27.428Z,3.92
2023-04-10T00:15:56.693Z,3.97
2023-04-10T00:18:25.798Z,3.99
2023-04-10T00:20:52.368Z,3.95
2023-04-10T00:23:18.947Z,3.98
2023-04-10T00:25:49.943Z,3.96
2023-04-10T00:28:18.969Z,3.78
2023-04-10T00:30:45.613Z,3.81
2023-04-10T00:33:14.593Z,3.82
2023-04-10T00:35:43.561Z,3.62
2023-04-10T00:38:10.209Z,3.53
2023-04-10T00:40:39.290Z,3.64
2023-04-10T00:43:05.833Z,3.58
2023-04-10T00:45:32.434Z,3.43
2023-04-10T00:47:59.174Z,3.45
2023-04-10T00:50:25.929Z,3.47
2023-04-10T00:52:53.258Z,3.48
2023-04-10T00:55:19.994Z,3.55
2023-04-10T00:57:47.180Z,3.56
2023-04-10T01:00:17.991Z,3.22
2023-04-10T01:02:44.740Z,3.44
2023-04-10T01:05:14.095Z,3.43
2023-04-10T01:07:56.180Z,3.42
2023-04-10T01:10:34.892Z,3.44
2023-04-10T01:13:06.738Z,3.43
2023-04-10T01:15:47.941Z,3.38
2023-04-10T01:18:45.925Z,3.30
2023-04-10T01:21:16.329Z,3.01
2023-04-10T01:23:44.883Z,3.20
2023-04-10T01:26:13.979Z,3.12
2023-04-10T01:29:07.308Z,3.09
2023-04-10T01:31:38.993Z,3.17
2023-04-10T01:34:09.540Z,3.19
2023-04-10T01:36:43.186Z,3.18
2023-04-10T01:39:12.672Z,3.07
2023-04-10T01:41:44.505Z,2.88
2023-04-10T01:44:17.277Z,2.87
2023-04-10T01:46:45.479Z,2.57
2023-04-10T01:49:13.359Z,2.78
2023-04-10T01:51:42.444Z,2.71
2023-04-10T01:54:09.378Z,2.69
2023-04-10T01:56:38.138Z,2.81
2023-04-10T01:59:05.666Z,2.84
2023-04-10T02:01:34.604Z,2.73
2023-04-10T02:04:02.410Z,2.81
2023-04-10T02:06:34.742Z,2.56
2023-04-10T02:09:21.990Z,2.64
2023-04-10T02:11:55.196Z,2.69
2023-04-10T02:14:28.437Z,2.66
2023-04-10T02:16:59.347Z,2.61
2023-04-10T02:19:33.132Z,2.60
2023-04-10T02:21:59.999Z,2.68
2023-04-10T02:24:29.354Z,2.55
2023-04-10T02:26:58.159Z,2.06
2023-04-10T02:29:27.185Z,2.30
2023-04-10T02:31:56.123Z,2.47
2023-04-10T02:34:27.308Z,2.57
2023-04-10T02:36:56.336Z,2.49
2023-04-10T02:39:22.873Z,2.46
2023-04-10T02:41:52.882Z,2.56
2023-04-10T02:44:21.811Z,2.56
2023-04-10T02:46:48.358Z,2.54
2023-04-10T02:49:17.282Z,2.57
2023-04-10T02:51:43.832Z,2.63
2023-04-10T02:54:12.713Z,2.61
2023-04-10T02:56:39.250Z,2.45
2023-04-10T02:59:13.338Z,2.45
2023-04-10T03:01:42.518Z,2.54
2023-04-10T03:04:09.250Z,2.61
2023-04-10T03:06:35.884Z,2.62
2023-04-10T03:09:02.501Z,2.62
2023-04-10T03:11:31.539Z,2.62
2023-04-10T03:14:01.147Z,2.60
2023-04-10T03:16:32.575Z,2.59
2023-04-10T03:18:59.467Z,2.51
2023-04-10T03:21:27.362Z,2.49
2023-04-10T03:23:54.046Z,2.48
2023-04-10T03:26:21.239Z,2.43
2023-04-10T03:28:47.883Z,2.43
2023-04-10T03:31:14.474Z,2.46
2023-04-10T03:33:43.533Z,2.35
2023-04-10T03:36:17.340Z,2.35
2023-04-10T03:38:48.551Z,2.33
2023-04-10T03:41:15.120Z,2.29
2023-04-10T03:43:46.677Z,2.19
2023-04-10T03:46:15.749Z,1.74
2023-04-10T03:48:45.060Z,2.05
2023-04-10T03:51:11.662Z,2.06
2023-04-10T03:53:38.240Z,1.92
2023-04-10T03:56:05.289Z,2.12
2023-04-10T03:58:31.817Z,2.12
2023-04-10T04:01:02.879Z,2.09
2023-04-10T04:03:29.560Z,2.04
2023-04-10T04:05:58.406Z,2.09
2023-04-10T04:08:24.932Z,2.00
2023-04-10T04:10:51.489Z,1.82
2023-04-10T04:13:20.561Z,1.91
2023-04-10T04:15:49.700Z,1.91
2023-04-10T04:18:16.215Z,2.00
2023-04-10T04:20:42.820Z,1.97
2023-04-10T04:23:12.967Z,2.00
2023-04-10T04:25:42.644Z,1.96
2023-04-10T04:28:09.836Z,1.83
2023-04-10T04:30:38.788Z,1.90
2023-04-10T04:33:05.350Z,1.78
2023-04-10T04:35:34.500Z,1.73
2023-04-10T04:38:03.270Z,1.68
2023-04-10T04:40:29.808Z,1.82
2023-04-10T04:43:00.846Z,1.83
2023-04-10T04:45:31.078Z,1.89
2023-04-10T04:47:57.744Z,1.77
2023-04-10T04:50:26.898Z,1.82
2023-04-10T04:52:53.451Z,1.95
2023-04-10T04:55:22.409Z,1.92
2023-04-10T04:57:48.932Z,1.67
2023-04-10T05:00:18.824Z,1.92
2023-04-10T05:02:45.501Z,2.00
2023-04-10T05:05:12.145Z,2.03
2023-04-10T05:07:41.727Z,2.11
2023-04-10T05:10:09.007Z,2.11
2023-04-10T05:12:37.850Z,2.27
2023-04-10T05:15:07.327Z,2.15
2023-04-10T05:17:36.471Z,2.10
2023-04-10T05:20:03.380Z,2.19
2023-04-10T05:22:29.925Z,2.00
2023-04-10T05:24:56.631Z,1.98
2023-04-10T05:27:25.819Z,1.84
2023-04-10T05:29:52.394Z,2.12
2023-04-10T05:32:21.074Z,2.31
2023-04-10T05:34:49.871Z,2.25
2023-04-10T05:37:16.468Z,2.47
2023-04-10T05:39:45.471Z,2.48
2023-04-10T05:42:14.283Z,2.60
2023-04-10T05:44:40.874Z,2.68
2023-04-10T05:47:12.309Z,2.60
2023-04-10T05:49:41.172Z,2.64
2023-04-10T05:52:07.736Z,2.52
2023-04-10T05:54:34.426Z,2.51
2023-04-10T05:57:01.774Z,2.67
2023-04-10T05:59:30.592Z,2.72
2023-04-10T06:01:57.441Z,2.93
2023-04-10T06:04:24.236Z,2.88
2023-04-10T06:06:50.890Z,2.90
2023-04-10T06:09:17.429Z,3.01
2023-04-10T06:11:43.966Z,2.81
2023-04-10T06:14:15.399Z,2.75
2023-04-10T06:16:44.006Z,2.71
2023-04-10T06:19:11.655Z,2.88
2023-04-10T06:21:38.195Z,3.13
2023-04-10T06:24:04.853Z,3.21
2023-04-10T06:26:33.700Z,3.18
2023-04-10T06:29:00.536Z,3.22
2023-04-10T06:31:35.654Z,3.29
2023-04-10T06:34:02.212Z,3.38
2023-04-10T06:36:33.725Z,3.23
2023-04-10T06:39:03.287Z,3.52
2023-04-10T06:41:29.852Z,3.37
2023-04-10T06:43:59.239Z,3.73
2023-04-10T06:46:27.797Z,3.75
2023-04-10T06:48:54.539Z,4.03
2023-04-10T06:51:23.476Z,4.28
2023-04-10T06:53:50.121Z,4.39
2023-04-10T06:56:19.650Z,4.38
2023-04-10T06:58:51.070Z,4.44
2023-04-10T07:01:22.181Z,4.40
2023-04-10T07:03:51.370Z,4.82
2023-04-10T07:06:17.938Z,4.74
2023-04-10T07:08:46.723Z,4.82
2023-04-10T07:11:13.277Z,5.13
2023-04-10T07:13:42.076Z,5.66
2023-04-10T07:16:11.240Z,5.88
2023-04-10T07:18:41.293Z,6.00
2023-04-10T07:21:15.813Z,5.71
2023-04-10T07:23:42.565Z,5.60
2023-04-10T07:26:11.638Z,5.73
2023-04-10T07:28:40.759Z,5.82
2023-04-10T07:31:10.649Z,6.14
2023-04-10T07:33:38.289Z,6.87
2023-04-10T07:36:07.676Z,6.64
2023-04-10T07:38:37.761Z,6.82
2023-04-10T07:41:10.533Z,7.25
2023-04-10T07:43:37.050Z,7.71
2023-04-10T07:46:03.706Z,7.61
2023-04-10T07:48:30.463Z,7.92
2023-04-10T07:50:59.299Z,8.29
2023-04-10T07:53:26.203Z,7.84
2023-04-10T07:55:53.613Z,7.90
2023-04-10T07:58:20.310Z,7.82
2023-04-10T08:00:46.941Z,8.76
2023-04-10T08:03:15.868Z,8.46
2023-04-10T08:05:42.698Z,8.59
2023-04-10T08:08:11.438Z,8.64
2023-04-10T08:10:45.261Z,8.88
2023-04-10T08:13:16.698Z,8.85
2023-04-10T08:15:43.330Z,9.26
2023-04-10T08:18:09.840Z,9.22
2023-04-10T08:20:37.180Z,9.23
2023-04-10T08:23:17.375Z,9.57
2023-04-10T08:25:46.699Z,9.67
2023-04-10T08:28:15.915Z,9.61
2023-04-10T08:30:45.043Z,9.79
2023-04-10T08:33:11.654Z,10.21
2023-04-10T08:35:40.522Z,9.83
2023-04-10T08:38:14.007Z,9.93
2023-04-10T08:40:41.592Z,10.18
2023-04-10T08:43:08.175Z,10.51
2023-04-10T08:45:34.721Z,10.64
2023-04-10T08:48:06.483Z,10.61
2023-04-10T08:50:36.227Z,10.64
2023-04-10T08:53:10.898Z,10.78
2023-04-10T08:55:41.247Z,10.72
2023-04-10T08:58:11.370Z,10.94
2023-04-10T09:00:38.920Z,10.87
2023-04-10T09:03:11.791Z,11.07
2023-04-10T09:05:38.693Z,11.18
2023-04-10T09:08:07.177Z,11.39
2023-04-10T09:10:36.472Z,11.28
2023-04-10T09:13:03.056Z,11.72
2023-04-10T09:15:49.608Z,11.88
2023-04-10T09:18:21.334Z,11.87
2023-04-10T09:20:51.529Z,11.58
2023-04-10T09:23:22.186Z,11.89
2023-04-10T09:25:49.976Z,11.71
2023-04-10T09:28:17.868Z,11.84
2023-04-10T09:30:44.447Z,11.88
2023-04-10T09:33:19.869Z,12.01
2023-04-10T09:35:46.428Z,11.87
2023-04-10T09:38:21.116Z,12.43
2023-04-10T09:40:48.932Z,12.47
2023-04-10T09:43:26.560Z,12.44
2023-04-10T09:45:55.346Z,12.71
2023-04-10T09:48:22.947Z,12.87
2023-04-10T09:50:50.015Z,12.71
2023-04-10T09:53:20.585Z,12.45
2023-04-10T09:55:51.192Z,12.82
2023-04-10T09:58:21.094Z,12.61
2023-04-10T10:00:49.579Z,12.70
2023-04-10T10:03:25.946Z,12.96
2023-04-10T10:05:55.917Z,13.19
2023-04-10T10:08:23.873Z,13.16
2023-04-10T10:11:00.404Z,12.73
2023-04-10T10:13:41.609Z,12.67
2023-04-10T10:16:25.801Z,12.97
2023-04-10T10:19:08.248Z,13.26
2023-04-10T10:21:38.368Z,13.33
2023-04-10T10:24:10.601Z,13.19
2023-04-10T10:26:43.162Z,13.24
2023-04-10T10:29:14.152Z,13.69
2023-04-10T10:31:49.062Z,13.53
2023-04-10T10:34:16.589Z,13.50
2023-04-10T10:36:43.291Z,14.07
2023-04-10T10:39:12.646Z,13.92
2023-04-10T10:41:49.635Z,14.32
2023-04-10T10:45:04.102Z,14.64
2023-04-10T10:47:32.808Z,14.28
2023-04-10T10:49:59.401Z,14.02
2023-04-10T10:52:49.797Z,14.16
2023-04-10T10:55:22.168Z,14.75
2023-04-10T10:58:00.943Z,14.64
2023-04-10T11:00:49.979Z,14.38
2023-04-10T11:03:16.629Z,14.55
2023-04-10T11:05:55.919Z,14.72
2023-04-10T11:08:47.919Z,15.19
2023-04-10T11:11:23.463Z,15.35
2023-04-10T11:13:52.315Z,15.06
2023-04-10T11:16:23.679Z,14.77
2023-04-10T11:19:02.667Z,14.84
2023-04-10T11:21:57.636Z,15.05
2023-04-10T11:24:26.539Z,15.38
2023-04-10T11:26:56.242Z,15.52
2023-04-10T11:29:28.795Z,15.53
2023-04-10T11:31:57.294Z,15.66
2023-04-10T11:34:36.489Z,15.88
2023-04-10T11:37:07.129Z,15.38
2023-04-10T11:39:33.703Z,15.28
2023-04-10T11:42:01.657Z,15.05
2023-04-10T11:44:31.713Z,15.32
2023-04-10T11:47:02.087Z,15.80
2023-04-10T11:49:34.583Z,16.01
2023-04-10T11:52:03.507Z,15.95
2023-04-10T11:54:35.330Z,15.74
2023-04-10T11:57:09.170Z,15.58
2023-04-10T11:59:38.270Z,15.88
2023-04-10T12:02:14.734Z,16.28
2023-04-10T12:04:43.104Z,16.20
2023-04-10T12:07:12.322Z,16.07
2023-04-10T12:09:39.109Z,16.24
2023-04-10T12:12:07.735Z,16.23
2023-04-10T12:14:44.419Z,16.24
2023-04-10T12:17:14.260Z,16.57
2023-04-10T12:19:41.521Z,16.53
2023-04-10T12:22:12.691Z,16.43
2023-04-10T12:24:48.374Z,16.72
2023-04-10T12:27:26.702Z,16.49
2023-04-10T12:30:01.676Z,16.76
2023-04-10T12:32:28.349Z,16.82
2023-04-10T12:35:01.396Z,16.84
2023-04-10T12:37:51.214Z,17.18
2023-04-10T12:40:20.558Z,17.12
2023-04-10T12:42:47.386Z,16.52
2023-04-10T12:45:14.668Z,16.82
2023-04-10T12:47:48.248Z,17.16
2023-04-10T12:50:22.141Z,17.11
2023-04-10T12:53:11.853Z,16.84
2023-04-10T12:55:42.043Z,17.08
2023-04-10T12:58:20.273Z,17.15
2023-04-10T13:00:50.119Z,17.22
2023-04-10T13:03:21.792Z,17.33
2023-04-10T13:05:48.600Z,17.47
2023-04-10T13:08:15.173Z,17.50
2023-04-10T13:10:43.538Z,17.53
2023-04-10T13:13:13.298Z,17.52
2023-04-10T13:15:40.972Z,17.58
2023-04-10T13:18:08.176Z,17.78
2023-04-10T13:20:38.907Z,18.02
2023-04-10T13:23:06.774Z,18.14
2023-04-10T13:25:36.443Z,18.19
2023-04-10T13:28:03.529Z,18.17
2023-04-10T13:30:33.141Z,18.12
2023-04-10T13:32:59.704Z,17.81
2023-04-10T13:35:26.341Z,17.80
2023-04-10T13:37:54.276Z,17.71
2023-04-10T13:40:21.435Z,17.82
2023-04-10T13:42:48.423Z,17.78
2023-04-10T13:45:15.700Z,17.86
2023-04-10T13:47:43.200Z,17.84
2023-04-10T13:50:10.368Z,17.80
2023-04-10T13:52:39.244Z,17.65
2023-04-10T13:55:06.584Z,17.77
2023-04-10T13:57:34.199Z,17.73
2023-04-10T14:00:01.303Z,17.75
2023-04-10T14:02:28.079Z,17.95
2023-04-10T14:04:57.224Z,17.94
2023-04-10T14:07:23.825Z,17.71
2023-04-10T14:09:52.464Z,17.54
2023-04-10T14:12:23.960Z,17.66
2023-04-10T14:14:50.672Z,17.64
2023-04-10T14:17:17.442Z,17.54
2023-04-10T14:19:51.606Z,17.47
2023-04-10T14:22:18.476Z,17.68
2023-04-10T14:24:44.989Z,17.76
2023-04-10T14:27:14.569Z,17.71
2023-04-10T14:29:47.652Z,17.64
2023-04-10T14:32:20.831Z,17.72
2023-04-10T14:34:47.418Z,17.68
2023-04-10T14:37:16.283Z,17.72
2023-04-10T14:39:42.920Z,17.54
2023-04-10T14:42:10.646Z,17.37
2023-04-10T14:44:39.699Z,17.31
2023-04-10T14:47:06.629Z,17.35
2023-04-10T14:49:35.337Z,17.34
2023-04-10T14:52:01.870Z,17.48
2023-04-10T14:54:31.495Z,17.29
2023-04-10T14:57:01.955Z,17.21
2023-04-10T14:59:31.843Z,17.15
2023-04-10T15:01:58.636Z,16.90
2023-04-10T15:04:28.447Z,17.14
2023-04-10T15:06:55.055Z,17.01
2023-04-10T15:09:26.484Z,16.84
2023-04-10T15:11:56.687Z,17.08
2023-04-10T15:14:25.618Z,16.85
2023-04-10T15:16:55.396Z,17.01
2023-04-10T15:19:21.942Z,16.80
2023-04-10T15:21:48.603Z,16.75
2023-04-10T15:24:15.422Z,16.95
2023-04-10T15:26:49.044Z,16.54
2023-04-10T15:29:15.743Z,16.53
2023-04-10T15:31:42.261Z,16.32
2023-04-10T15:34:09.649Z,16.31
2023-04-10T15:36:38.711Z,16.38
2023-04-10T15:39:10.266Z,16.27
2023-04-10T15:41:37.835Z,16.20
2023-04-10T15:44:06.592Z,16.14
2023-04-10T15:46:34.178Z,16.20
2023-04-10T15:49:00.906Z,16.19
2023-04-10T15:51:27.865Z,16.16
2023-04-10T15:53:56.842Z,16.08
2023-04-10T15:56:23.609Z,16.03
2023-04-10T15:58:52.483Z,15.89
2023-04-10T16:01:19.118Z,15.97
2023-04-10T16:03:46.167Z,15.83
2023-04-10T16:06:12.977Z,15.88
2023-04-10T16:08:39.504Z,15.81
2023-04-10T16:11:09.310Z,15.83
2023-04-10T16:13:40.965Z,15.84
2023-04-10T16:16:17.911Z,15.77
2023-04-10T16:18:45.129Z,15.88
2023-04-10T16:21:15.084Z,15.87
2023-04-10T16:23:46.681Z,15.86
2023-04-10T16:26:13.269Z,15.75
2023-04-10T16:28:39.893Z,15.68
2023-04-10T16:31:06.536Z,15.66
2023-04-10T16:33:33.148Z,15.51
2023-04-10T16:35:59.801Z,15.52
2023-04-10T16:38:26.402Z,15.36
2023-04-10T16:40:55.520Z,15.36
2023-04-10T16:43:24.839Z,15.22
2023-04-10T16:45:56.025Z,15.16
2023-04-10T16:48:22.869Z,15.06
2023-04-10T16:50:49.467Z,15.11
2023-04-10T16:53:17.057Z,15.02
2023-04-10T16:55:48.426Z,14.99
2023-04-10T16:58:14.962Z,14.93
2023-04-10T17:00:41.559Z,14.88
2023-04-10T17:03:10.780Z,14.72
2023-04-10T17:05:39.837Z,14.65
2023-04-10T17:08:06.555Z,14.64
2023-04-10T17:10:37.803Z,14.57
2023-04-10T17:13:04.424Z,14.53
2023-04-10T17:15:30.977Z,14.55
2023-04-10T17:17:57.527Z,14.47
2023-04-10T17:20:26.285Z,14.45
2023-04-10T17:22:55.308Z,14.45
2023-04-10T17:25:21.846Z,14.42
2023-04-10T17:27:50.708Z,14.40
2023-04-10T17:30:17.247Z,14.38
2023-04-10T17:32:48.639Z,14.37
2023-04-10T17:35:15.461Z,14.32
2023-04-10T17:37:45.079Z,14.19
2023-04-10T17:40:14.486Z,14.07
2023-04-10T17:42:44.065Z,14.15
2023-04-10T17:45:11.233Z,14.04
2023-04-10T17:47:40.506Z,14.00
2023-04-10T17:50:10.420Z,13.92
2023-04-10T17:52:37.149Z,13.78
2023-04-10T17:55:03.885Z,13.72
2023-04-10T17:57:30.546Z,13.71
2023-04-10T17:59:59.380Z,13.67
2023-04-10T18:02:28.452Z,13.66
2023-04-10T18:04:56.300Z,13.59
2023-04-10T18:07:22.948Z,13.57
2023-04-10T18:09:49.471Z,13.51
2023-04-10T18:12:16.042Z,13.43
2023-04-10T18:14:44.013Z,13.40
2023-04-10T18:17:13.056Z,13.39
2023-04-10T18:19:39.674Z,13.38
2023-04-10T18:22:06.197Z,13.30
2023-04-10T18:24:32.762Z,13.35
2023-04-10T18:26:59.283Z,13.29
2023-04-10T18:29:26.459Z,13.25
2023-04-10T18:31:53.026Z,13.33
2023-04-10T18:34:19.585Z,13.32
2023-04-10T18:36:46.711Z,13.27
2023-04-10T18:39:17.825Z,13.21
2023-04-10T18:41:47.009Z,13.20
2023-04-10T18:44:15.695Z,13.31
2023-04-10T18:46:46.306Z,13.23
2023-04-10T18:49:15.849Z,13.19
2023-04-10T18:51:46.977Z,13.14
2023-04-10T18:54:13.569Z,13.15
2023-04-10T18:56:42.227Z,13.18
2023-04-10T18:59:08.792Z,13.14
2023-04-10T19:01:39.718Z,13.13
2023-04-10T19:04:06.656Z,13.08
2023-04-10T19:06:35.083Z,13.09
2023-04-10T19:09:01.637Z,13.06
2023-04-10T19:11:28.231Z,13.11
2023-04-10T19:13:54.996Z,13.04
2023-04-10T19:16:21.903Z,12.99
2023-04-10T19:18:50.811Z,12.97
2023-04-10T19:21:17.385Z,12.95
2023-04-10T19:23:44.017Z,12.91
2023-04-10T19:26:13.089Z,12.90
2023-04-10T19:28:39.672Z,12.91
2023-04-10T19:31:06.370Z,12.86
2023-04-10T19:33:35.017Z,12.87
2023-04-10T19:36:01.676Z,12.86
2023-04-10T19:38:31.907Z,12.88
2023-04-10T19:41:01.175Z,12.86
2023-04-10T19:43:27.821Z,12.82
2023-04-10T19:45:55.162Z,12.81
2023-04-10T19:48:21.721Z,12.79
2023-04-10T19:50:48.267Z,12.78
2023-04-10T19:53:15.676Z,12.76
2023-04-10T19:55:46.302Z,12.81
2023-04-10T19:58:35.680Z,12.78
2023-04-10T20:01:05.100Z,12.73
2023-04-10T20:03:32.929Z,12.70
2023-04-10T20:06:07.240Z,12.68
2023-04-10T20:08:34.654Z,12.67
2023-04-10T20:11:06.074Z,12.64
2023-04-10T20:13:36.105Z,12.64
2023-04-10T20:16:05.585Z,12.61
2023-04-10T20:18:34.552Z,12.58
2023-04-10T20:21:01.143Z,12.56
2023-04-10T20:23:27.730Z,12.51
2023-04-10T20:25:54.310Z,12.49
2023-04-10T20:28:20.922Z,12.43
2023-04-10T20:30:50.174Z,12.43
2023-04-10T20:33:19.321Z,12.45
2023-04-10T20:35:46.002Z,12.44
2023-04-10T20:38:12.512Z,12.45
2023-04-10T20:40:41.333Z,12.42
2023-04-10T20:43:11.888Z,12.40
2023-04-10T20:45:39.290Z,12.39
2023-04-10T20:48:06.469Z,12.35
2023-04-10T20:50:36.995Z,12.39
2023-04-10T20:53:03.806Z,12.35
2023-04-10T20:55:32.587Z,12.31
2023-04-10T20:58:01.444Z,12.33
2023-04-10T21:00:30.885Z,12.33
2023-04-10T21:03:00.614Z,12.33
2023-04-10T21:05:30.592Z,12.39
2023-04-10T21:07:57.258Z,12.41
2023-04-10T21:10:26.269Z,12.35
2023-04-10T21:12:54.974Z,12.32
2023-04-10T21:15:22.447Z,12.26
2023-04-10T21:17:51.341Z,12.28
2023-04-10T21:20:20.141Z,12.24
2023-04-10T21:22:48.782Z,12.21
2023-04-10T21:25:17.870Z,12.20
2023-04-10T21:27:44.466Z,12.18
2023-04-10T21:30:13.561Z,12.14
2023-04-10T21:32:40.305Z,12.08
2023-04-10T21:35:07.268Z,12.05
2023-04-10T21:37:33.872Z,12.03
2023-04-10T21:40:02.724Z,12.06
2023-04-10T21:42:33.408Z,11.99
2023-04-10T21:45:04.677Z,11.99
2023-04-10T21:47:33.544Z,11.94
2023-04-10T21:50:02.333Z,11.90
2023-04-10T21:52:28.907Z,11.88
2023-04-10T21:54:57.680Z,11.89
2023-04-10T21:57:27.352Z,11.87
2023-04-10T21:59:53.878Z,11.87
2023-04-10T22:02:22.558Z,11.83
2023-04-10T22:04:54.513Z,11.83
2023-04-10T22:07:24.342Z,11.83
2023-04-10T22:09:51.101Z,11.80
2023-04-10T22:12:20.068Z,11.83
2023-04-10T22:14:48.304Z,11.87
2023-04-10T22:17:15.530Z,11.84
2023-04-10T22:19:44.396Z,11.85
2023-04-10T22:22:10.950Z,11.86
2023-04-10T22:24:40.473Z,11.88
2023-04-10T22:27:09.308Z,11.87
2023-04-10T22:29:35.964Z,11.85
2023-04-10T22:32:04.900Z,11.89
2023-04-10T22:34:31.745Z,11.86
2023-04-10T22:36:58.283Z,11.85
2023-04-10T22:39:24.886Z,11.85
2023-04-10T22:41:51.445Z,11.87
2023-04-10T22:44:20.480Z,11.83
2023-04-10T22:46:49.497Z,11.83
2023-04-10T22:49:18.500Z,11.82
2023-04-10T22:51:50.220Z,11.83
2023-04-10T22:54:21.603Z,11.82
2023-04-10T22:56:48.885Z,11.79
2023-04-10T22:59:18.471Z,11.80
2023-04-10T23:01:47.414Z,11.79
2023-04-10T23:04:16.548Z,11.79
2023-04-10T23:06:45.693Z,11.79
2023-04-10T23:09:14.811Z,11.77
2023-04-10T23:11:46.069Z,11.80
2023-04-10T23:14:14.895Z,11.74
2023-04-10T23:16:41.677Z,11.75
2023-04-10T23:19:10.654Z,11.74
2023-04-10T23:21:41.914Z,11.75
2023-04-10T23:24:10.765Z,11.75
2023-04-10T23:26:39.505Z,11.73
2023-04-10T23:29:06.214Z,11.74
2023-04-10T23:31:35.795Z,11.74
2023-04-10T23:34:02.371Z,11.72
2023-04-10T23:36:29.007Z,11.73
2023-04-10T23:38:57.931Z,11.70
2023-04-10T23:41:24.486Z,11.64
2023-04-10T23:43:54.071Z,11.65
2023-04-10T23:46:20.748Z,11.63
2023-04-10T23:48:54.175Z,11.62
2023-04-10T23:51:21.085Z,11.60
2023-04-10T23:53:49.835Z,11.59
2023-04-10T23:56:16.827Z,11.56
2023-04-10T23:58:43.419Z,11.59
